地図

経路データ

SID SEASON NUMBER BASIN SUBBASIN NAME ISO_TIME NATURE LAT LON WMO_WIND WMO_PRES WMO_AGENCY TRACK_TYPE DIST2LAND LANDFALL IFLAG USA_AGENCY USA_ATCF_ID USA_LAT USA_LON USA_RECORD USA_STATUS USA_WIND USA_PRES USA_SSHS USA_R34_NE USA_R34_SE USA_R34_SW USA_R34_NW USA_R50_NE USA_R50_SE USA_R50_SW USA_R50_NW USA_R64_NE USA_R64_SE USA_R64_SW USA_R64_NW USA_POCI USA_ROCI USA_RMW USA_EYE TOKYO_LAT TOKYO_LON TOKYO_GRADE TOKYO_WIND TOKYO_PRES TOKYO_R50_DIR TOKYO_R50_LONG TOKYO_R50_SHORT TOKYO_R30_DIR TOKYO_R30_LONG TOKYO_R30_SHORT TOKYO_LAND CMA_LAT CMA_LON CMA_CAT CMA_WIND CMA_PRES HKO_LAT HKO_LON HKO_CAT HKO_WIND HKO_PRES NEWDELHI_LAT NEWDELHI_LON NEWDELHI_GRADE NEWDELHI_WIND NEWDELHI_PRES NEWDELHI_CI NEWDELHI_DP NEWDELHI_POCI REUNION_LAT REUNION_LON REUNION_TYPE REUNION_WIND REUNION_PRES REUNION_TNUM REUNION_CI REUNION_RMW REUNION_R34_NE REUNION_R34_SE REUNION_R34_SW REUNION_R34_NW REUNION_R50_NE REUNION_R50_SE REUNION_R50_SW REUNION_R50_NW REUNION_R64_NE REUNION_R64_SE REUNION_R64_SW REUNION_R64_NW BOM_LAT BOM_LON BOM_TYPE BOM_WIND BOM_PRES BOM_TNUM BOM_CI BOM_RMW BOM_R34_NE BOM_R34_SE BOM_R34_SW BOM_R34_NW BOM_R50_NE BOM_R50_SE BOM_R50_SW BOM_R50_NW BOM_R64_NE BOM_R64_SE BOM_R64_SW BOM_R64_NW BOM_ROCI BOM_POCI BOM_EYE BOM_POS_METHOD BOM_PRES_METHOD NADI_LAT NADI_LON NADI_CAT NADI_WIND NADI_PRES WELLINGTON_LAT WELLINGTON_LON WELLINGTON_WIND WELLINGTON_PRES DS824_LAT DS824_LON DS824_STAGE DS824_WIND DS824_PRES TD9636_LAT TD9636_LON TD9636_STAGE TD9636_WIND TD9636_PRES TD9635_LAT TD9635_LON TD9635_WIND TD9635_PRES TD9635_ROCI NEUMANN_LAT NEUMANN_LON NEUMANN_CLASS NEUMANN_WIND NEUMANN_PRES MLC_LAT MLC_LON MLC_CLASS MLC_WIND MLC_PRES USA_GUST BOM_GUST BOM_GUST_PER REUNION_GUST REUNION_GUST_PER USA_SEAHGT USA_SEARAD_NE USA_SEARAD_SE USA_SEARAD_SW USA_SEARAD_NW STORM_SPEED STORM_DIR
1939323N10131 1939 80 WP MM NOT_NAMED 1939-11-19 10:00:00 NR 9.50000 130.500 main 468 446 __________O___ -1 9.50000 130.500 3 6 287
1939323N10131 1939 80 WP MM NOT_NAMED 1939-11-19 12:00:00 NR 9.56468 130.291 main 448 408 __________P___ -1 9.56468 130.291 3 7 287
1939323N10131 1939 80 WP MM NOT_NAMED 1939-11-19 15:00:00 NR 9.66864 129.950 main 408 368 __________P___ -1 9.66864 129.950 3 8 287
1939323N10131 1939 80 WP MM NOT_NAMED 1939-11-19 18:00:00 NR 9.79067 129.537 main 368 317 __________P___ -1 9.79067 129.537 3 10 286
1939323N10131 1939 80 WP MM NOT_NAMED 1939-11-19 21:00:00 NR 9.94151 129.009 main 317 299 __________P___ -1 9.94151 129.009 3 11 286
1939323N10131 1939 80 WP MM NOT_NAMED 1939-11-19 22:00:00 NR 10.0000 128.800 main 299 251 __________O___ -1 10.0000 128.800 4 14 286
1939323N10131 1939 80 WP MM NOT_NAMED 1939-11-20 00:00:00 NR 10.1303 128.328 main 251 192 __________P___ -1 10.1303 128.328 4 16 285
1939323N10131 1939 80 WP MM NOT_NAMED 1939-11-20 03:00:00 NR 10.3506 127.512 main 192 98 __________P___ -1 10.3506 127.512 4 17 285
1939323N10131 1939 80 WP MM NOT_NAMED 1939-11-20 06:00:00 NR 10.5869 126.618 main 98 22 __________P___ -1 10.5869 126.618 4 18 285
1939323N10131 1939 80 WP MM NOT_NAMED 1939-11-20 09:00:00 NR 10.8236 125.701 main 24 22 __________P___ -1 10.8236 125.701 4 19 285
1939323N10131 1939 80 WP MM NOT_NAMED 1939-11-20 10:00:00 NR 10.9000 125.400 main 22 0 __________O___ -1 10.9000 125.400 4 17 285
1939323N10131 1939 80 WP MM NOT_NAMED 1939-11-20 12:00:00 NR 11.0409 124.852 main 0 0 __________P___ -1 11.0409 124.852 4 17 285
1939323N10131 1939 80 WP MM NOT_NAMED 1939-11-20 15:00:00 NR 11.2465 124.036 main 0 10 __________P___ -1 11.2465 124.036 4 17 284
1939323N10131 1939 80 WP MM NOT_NAMED 1939-11-20 18:00:00 NR 11.4454 123.218 main 10 0 __________P___ -1 11.4454 123.218 4 17 284
1939323N10131 1939 80 WP MM NOT_NAMED 1939-11-20 21:00:00 NR 11.6375 122.384 main 0 0 __________P___ -1 11.6375 122.384 4 17 283
1939323N10131 1939 80 WP MM NOT_NAMED 1939-11-20 22:00:00 NR 11.7000 122.100 main 0 0 __________O___ -1 11.7000 122.100 4 17 282
1939323N10131 1939 80 WP MM NOT_NAMED 1939-11-21 00:00:00 NR 11.8115 121.517 main 32 32 __________P___ -1 11.8115 121.517 4 18 281
1939323N10131 1939 80 WP MM NOT_NAMED 1939-11-21 03:00:00 NR 11.9725 120.623 main 58 58 __________P___ -1 11.9725 120.623 4 18 281
1939323N10131 1939 80 WP MM NOT_NAMED 1939-11-21 06:00:00 NR 12.1398 119.715 main 90 90 __________P___ -1 12.1398 119.715 4 18 281
1939323N10131 1939 80 WP MM NOT_NAMED 1939-11-21 09:00:00 NR 12.3292 118.803 main 135 135 __________P___ -1 12.3292 118.803 4 18 282
1939323N10131 1939 80 WP MM NOT_NAMED 1939-11-21 10:00:00 NR 12.4000 118.500 main 164 164 __________O___ -1 12.4000 118.500 4 19 283
1939323N10131 1939 80 WP MM NOT_NAMED 1939-11-21 12:00:00 NR 12.5559 117.835 main 234 234 __________P___ -1 12.5559 117.835 4 20 284
1939323N10131 1939 80 WP MM NOT_NAMED 1939-11-21 15:00:00 NR 12.8148 116.836 main 334 334 __________P___ -1 12.8148 116.836 4 20 286
1939323N10131 1939 80 WP MM NOT_NAMED 1939-11-21 18:00:00 NR 13.0973 115.904 main 436 436 __________P___ -1 13.0973 115.904 4 18 289
1939323N10131 1939 80 WP MM NOT_NAMED 1939-11-21 21:00:00 NR 13.3972 115.117 main 528 528 __________P___ -1 13.3972 115.117 4 16 292
1939323N10131 1939 80 WP MM NOT_NAMED 1939-11-21 22:00:00 NR 13.5000 114.900 main 552 552 __________O___ -1 13.5000 114.900 4 12 299
1939323N10131 1939 80 WP MM NOT_NAMED 1939-11-22 00:00:00 NR 13.6959 114.560 main 559 523 __________P___ -1 13.6959 114.560 4 10 307
1939323N10131 1939 80 WP MM NOT_NAMED 1939-11-22 03:00:00 NR 14.0036 114.208 main 523 508 __________P___ -1 14.0036 114.208 4 8 319
1939323N10131 1939 80 WP MM NOT_NAMED 1939-11-22 06:00:00 NR 14.3304 113.991 main 509 493 __________P___ -1 14.3304 113.991 4 8 332
1939323N10131 1939 80 WP MM NOT_NAMED 1939-11-22 09:00:00 NR 14.6787 113.844 main 493 493 __________P___ -1 14.6787 113.844 4 8 338
1939323N10131 1939 80 WP MM NOT_NAMED 1939-11-22 10:00:00 NR 14.8000 113.800 main 495 487 __________O___ -1 14.8000 113.800 4 8 336
1939323N10131 1939 80 WP MM NOT_NAMED 1939-11-22 12:00:00 NR 15.0415 113.676 main 489 479 __________P___ -1 15.0415 113.676 4 8 337
1939323N10131 1939 80 WP MM NOT_NAMED 1939-11-22 15:00:00 NR 15.4227 113.523 main 479 454 __________P___ -1 15.4227 113.523 4 8 340
1939323N10131 1939 80 WP MM NOT_NAMED 1939-11-22 18:00:00 NR 15.8264 113.388 main 454 407 __________P___ -1 15.8264 113.388 4 9 343
1939323N10131 1939 80 WP MM NOT_NAMED 1939-11-22 21:00:00 NR 16.2529 113.250 main 407 392 __________P___ -1 16.2529 113.250 4 9 343
1939323N10131 1939 80 WP MM NOT_NAMED 1939-11-22 22:00:00 NR 16.4000 113.200 main 392 361 __________O___ -1 16.4000 113.200 4 10 337
1939323N10131 1939 80 WP MM NOT_NAMED 1939-11-23 00:00:00 NR 16.6944 113.063 main 361 302 __________P___ -1 16.6944 113.063 4 10 336
1939323N10131 1939 80 WP MM NOT_NAMED 1939-11-23 03:00:00 NR 17.1548 112.843 main 302 259 __________P___ -1 17.1548 112.843 4 10 336
1939323N10131 1939 80 WP MM NOT_NAMED 1939-11-23 06:00:00 NR 17.6348 112.631 main 259 214 __________P___ -1 17.6348 112.631 4 11 339
1939323N10131 1939 80 WP MM NOT_NAMED 1939-11-23 09:00:00 NR 18.1313 112.449 main 214 205 __________P___ -1 18.1313 112.449 4 11 342
1939323N10131 1939 80 WP MM NOT_NAMED 1939-11-23 10:00:00 NR 18.3000 112.400 main 205 176 __________O___ -1 18.3000 112.400 4 11 342
1939323N10131 1939 80 WP MM NOT_NAMED 1939-11-23 12:00:00 NR 18.6435 112.276 main 176 123 __________P___ -1 18.6435 112.276 4 11 343
1939323N10131 1939 80 WP MM NOT_NAMED 1939-11-23 15:00:00 NR 19.1714 112.125 main 123 115 __________P___ -1 19.1714 112.125 4 11 349
1939323N10131 1939 80 WP MM NOT_NAMED 1939-11-23 18:00:00 NR 19.7039 112.063 main 115 115 __________P___ -1 19.7039 112.063 4 11 0
1939323N10131 1939 80 WP MM NOT_NAMED 1939-11-23 21:00:00 NR 20.2288 112.136 main 129 133 __________P___ -1 20.2288 112.136 4 11 11
1939323N10131 1939 80 WP MM NOT_NAMED 1939-11-23 22:00:00 NR 20.4000 112.200 main 137 101 __________O___ -1 20.4000 112.200 4 12 22
1939323N10131 1939 80 WP MM NOT_NAMED 1939-11-24 00:00:00 NR 20.7802 112.374 main 101 56 __________P___ -1 20.7802 112.374 4 13 30
1939323N10131 1939 80 WP MM NOT_NAMED 1939-11-24 03:00:00 NR 21.3391 112.774 main 59 23 __________P___ -1 21.3391 112.774 4 14 40
1939323N10131 1939 80 WP MM NOT_NAMED 1939-11-24 06:00:00 NR 21.8346 113.315 main 32 22 __________P___ -1 21.8346 113.315 4 14 52
1939323N10131 1939 80 WP MM NOT_NAMED 1939-11-24 09:00:00 NR 22.2107 113.965 main 22 10 __________P___ -1 22.2107 113.965 4 14 60
1939323N10131 1939 80 WP MM NOT_NAMED 1939-11-24 10:00:00 NR 22.3000 114.200 main 10 0 __________O___ -1 22.3000 114.200 4 13 74
1939323N10131 1939 80 WP MM NOT_NAMED 1939-11-24 12:00:00 NR 22.3926 114.664 main 15 11 __________P___ -1 22.3926 114.664 4 14 85
1939323N10131 1939 80 WP MM NOT_NAMED 1939-11-24 15:00:00 NR 22.4049 115.435 main 33 33 __________P___ -1 22.4049 115.435 4 15 93
1939323N10131 1939 80 WP MM NOT_NAMED 1939-11-24 18:00:00 NR 22.3264 116.264 main 59 59 __________P___ -1 22.3264 116.264 4 16 97
1939323N10131 1939 80 WP MM NOT_NAMED 1939-11-24 21:00:00 NR 22.2262 117.116 main 99 106 __________P___ -1 22.2262 117.116 4 16 97
1939323N10131 1939 80 WP MM NOT_NAMED 1939-11-24 22:00:00 NR 22.2000 117.400 main 121 121 __________O___ -1 22.2000 117.400 4 15 92
1939323N10131 1939 80 WP MM NOT_NAMED 1939-11-25 00:00:00 NR 22.1990 117.939 main 163 157 __________P___ -1 22.1990 117.939 4 15 90
1939323N10131 1939 80 WP MM NOT_NAMED 1939-11-25 03:00:00 NR 22.2107 118.754 main 157 79 __________P___ -1 22.2107 118.754 4 15 89
1939323N10131 1939 80 WP MM NOT_NAMED 1939-11-25 06:00:00 NR 22.2383 119.579 main 79 15 __________P___ -1 22.2383 119.579 4 15 87
1939323N10131 1939 80 WP MM NOT_NAMED 1939-11-25 09:00:00 NR 22.2819 120.417 main 15 0 __________P___ -1 22.2819 120.417 4 16 87
1939323N10131 1939 80 WP MM NOT_NAMED 1939-11-25 10:00:00 NR 22.3000 120.700 main 0 0 __________O___ -1 22.3000 120.700 4 16 86
1939323N10131 1939 80 WP MM NOT_NAMED 1939-11-25 12:00:00 NR 22.3413 121.271 main 41 41 __________P___ -1 22.3413 121.271 4 16 85
1939323N10131 1939 80 WP MM NOT_NAMED 1939-11-25 15:00:00 NR 22.4132 122.139 main 105 113 __________P___ -1 22.4132 122.139 4 16 85
1939323N10131 1939 80 WP MM NOT_NAMED 1939-11-25 18:00:00 NR 22.4923 123.018 main 177 186 __________P___ -1 22.4923 123.018 4 16 84
1939323N10131 1939 80 WP MM NOT_NAMED 1939-11-25 21:00:00 NR 22.5734 123.904 main 262 272 __________P___ -1 22.5734 123.904 4 16 84
1939323N10131 1939 80 WP MM NOT_NAMED 1939-11-25 22:00:00 NR 22.6000 124.200 main 292 __________O___ -1 22.6000 124.200 7 16 84

デジタル台風データ・検索

IBTrACS Databaseについて

本データベースは、米国NOAAが公開する1842年以降の世界の熱帯低気圧のベストトラックデータアーカイブInternational Best Track Archive for Climate Stewardship (IBTrACS)を、ウェブで閲覧しやすい形式に変換したものです。

最終更新日:2021-10-08